createdAt,value
2019-05-20T00:01:17.860Z,9.10
2019-05-20T00:05:19.778Z,10.07
2019-05-20T00:09:21.704Z,14.37
2019-05-20T00:13:24.274Z,8.93
2019-05-20T00:17:26.218Z,9.17
2019-05-20T00:21:28.227Z,12.50
2019-05-20T00:25:30.148Z,10.83
2019-05-20T00:29:32.101Z,12.90
2019-05-20T00:33:34.075Z,11.23
2019-05-20T00:37:36.103Z,8.40
2019-05-20T00:41:38.031Z,8.57
2019-05-20T00:45:39.951Z,13.83
2019-05-20T00:49:41.854Z,10.47
2019-05-20T00:53:43.779Z,9.90
2019-05-20T00:57:45.677Z,12.23
2019-05-20T01:01:48.728Z,11.97
2019-05-20T01:05:50.631Z,8.77
2019-05-20T01:09:52.543Z,6.93
2019-05-20T01:13:54.440Z,8.37
2019-05-20T01:17:56.793Z,9.87
2019-05-20T01:21:59.429Z,10.47
2019-05-20T01:26:01.667Z,10.13
2019-05-20T01:30:03.915Z,11.60
2019-05-20T01:34:05.969Z,8.63
2019-05-20T01:38:07.901Z,10.83
2019-05-20T01:42:09.820Z,16.60
2019-05-20T01:46:11.742Z,16.77
2019-05-20T01:50:13.899Z,11.53
2019-05-20T01:54:15.818Z,10.23
2019-05-20T01:58:17.739Z,11.75
2019-05-20T02:02:19.645Z,8.10
2019-05-20T02:06:21.619Z,13.62
2019-05-20T02:10:23.676Z,8.50
2019-05-20T02:14:36.103Z,11.00
2019-05-20T02:18:38.037Z,14.20
2019-05-20T02:22:40.007Z,16.17
2019-05-20T02:26:41.940Z,13.67
2019-05-20T02:30:43.866Z,14.23
2019-05-20T02:34:45.941Z,15.37
2019-05-20T02:38:47.860Z,14.77
2019-05-20T02:42:49.773Z,8.73
2019-05-20T02:46:51.848Z,11.87
2019-05-20T02:50:53.757Z,9.57
2019-05-20T02:54:55.666Z,11.10
2019-05-20T02:58:57.588Z,12.37
2019-05-20T03:02:59.487Z,13.00
2019-05-20T03:07:01.659Z,11.47
2019-05-20T03:11:03.588Z,9.93
2019-05-20T03:15:07.610Z,14.30
2019-05-20T03:19:09.520Z,13.77
2019-05-20T03:23:11.593Z,12.58
2019-05-20T03:27:13.512Z,15.20
2019-05-20T03:31:15.578Z,10.93
2019-05-20T03:35:17.953Z,13.50
2019-05-20T03:39:19.856Z,12.37
2019-05-20T03:43:21.792Z,11.30
2019-05-20T03:47:23.703Z,10.77
2019-05-20T03:51:25.723Z,13.80
2019-05-20T03:55:27.681Z,13.13
2019-05-20T03:59:29.599Z,9.27
2019-05-20T04:03:32.694Z,12.40
2019-05-20T04:07:34.779Z,15.90
2019-05-20T04:11:36.987Z,14.60
2019-05-20T04:15:40.974Z,14.13
2019-05-20T04:19:42.575Z,13.00
2019-05-20T04:23:44.533Z,11.90
2019-05-20T04:27:46.592Z,12.93
2019-05-20T04:31:48.517Z,14.77
2019-05-20T04:35:50.433Z,13.60
2019-05-20T04:39:53.508Z,11.10
2019-05-20T04:43:57.004Z,12.17
2019-05-20T04:47:58.929Z,8.53
2019-05-20T04:52:01.604Z,15.53
2019-05-20T04:56:03.523Z,14.03
2019-05-20T05:00:09.843Z,13.93
2019-05-20T05:04:13.365Z,14.28
2019-05-20T05:08:15.353Z,14.57
2019-05-20T05:12:17.576Z,16.37
2019-05-20T05:16:19.602Z,15.28
2019-05-20T05:20:21.507Z,12.83
2019-05-20T05:24:23.513Z,14.63
2019-05-20T05:28:25.983Z,14.63
2019-05-20T05:32:29.820Z,15.67
2019-05-20T05:36:31.740Z,15.97
2019-05-20T05:40:33.953Z,20.50
2019-05-20T05:44:35.900Z,13.47
2019-05-20T05:48:37.822Z,14.43
2019-05-20T05:52:39.744Z,18.57
2019-05-20T05:56:41.790Z,18.67
2019-05-20T06:00:43.746Z,19.43
2019-05-20T06:04:45.707Z,22.60
2019-05-20T06:08:47.634Z,19.30
2019-05-20T06:12:49.546Z,17.20
2019-05-20T06:16:51.475Z,15.57
2019-05-20T06:20:53.399Z,17.90
2019-05-20T06:24:55.328Z,20.50
2019-05-20T06:28:57.339Z,18.87
2019-05-20T06:32:59.264Z,19.43
2019-05-20T06:37:03.230Z,18.37
2019-05-20T06:41:08.194Z,15.85
2019-05-20T06:45:10.875Z,13.45
2019-05-20T06:49:12.860Z,14.70
2019-05-20T06:53:15.575Z,15.30
2019-05-20T06:57:17.502Z,16.73
2019-05-20T07:01:19.420Z,14.00
2019-05-20T07:05:21.355Z,16.47
2019-05-20T07:09:23.270Z,13.22
2019-05-20T07:13:25.309Z,14.77
2019-05-20T07:17:27.264Z,16.73
2019-05-20T07:21:29.172Z,14.97
2019-05-20T07:25:31.134Z,15.37
2019-05-20T07:29:33.121Z,15.03
2019-05-20T07:33:35.045Z,17.23
2019-05-20T07:37:37.017Z,17.70
2019-05-20T07:41:41.440Z,16.20
2019-05-20T07:45:43.252Z,15.20
2019-05-20T07:49:45.879Z,15.10
2019-05-20T07:53:47.908Z,15.70
2019-05-20T07:57:54.177Z,14.37
2019-05-20T08:01:56.280Z,15.83
2019-05-20T08:05:58.224Z,13.80
2019-05-20T08:10:00.294Z,16.93
2019-05-20T08:14:02.454Z,15.67
2019-05-20T08:18:04.515Z,15.60
2019-05-20T08:22:06.435Z,13.27
2019-05-20T08:26:08.650Z,16.10
2019-05-20T08:30:14.184Z,19.65
2019-05-20T08:34:16.035Z,17.30
2019-05-20T08:38:18.248Z,17.20
2019-05-20T08:42:20.157Z,13.98
2019-05-20T08:46:22.099Z,16.10
2019-05-20T08:50:24.106Z,15.33
2019-05-20T08:54:26.115Z,16.20
2019-05-20T08:58:28.034Z,15.65
2019-05-20T09:02:29.971Z,14.73
2019-05-20T09:06:31.966Z,18.20
2019-05-20T09:10:34.246Z,16.90
2019-05-20T09:14:36.162Z,16.97
2019-05-20T09:18:38.084Z,15.73
2019-05-20T09:22:40.034Z,16.03
2019-05-20T09:26:41.971Z,15.23
2019-05-20T09:30:43.961Z,19.07
2019-05-20T09:34:46.080Z,19.63
2019-05-20T09:38:47.952Z,20.00
2019-05-20T09:42:49.917Z,18.60
2019-05-20T09:46:51.800Z,16.13
2019-05-20T09:50:54.551Z,19.50
2019-05-20T09:54:56.473Z,17.50
2019-05-20T09:58:58.604Z,19.37
2019-05-20T10:03:00.625Z,16.03
2019-05-20T10:07:03.896Z,18.27
2019-05-20T10:11:06.364Z,17.40
2019-05-20T10:15:09.203Z,15.23
2019-05-20T10:19:11.152Z,13.20
2019-05-20T10:23:15.779Z,13.33
2019-05-20T10:27:16.707Z,16.27
2019-05-20T10:31:19.617Z,13.75
2019-05-20T10:35:21.543Z,15.05
2019-05-20T10:39:23.467Z,18.00
2019-05-20T10:43:28.968Z,14.97
2019-05-20T10:47:30.893Z,14.57
2019-05-20T10:51:32.835Z,15.93
2019-05-20T10:55:34.834Z,14.53
2019-05-20T10:59:36.752Z,13.07
2019-05-20T11:03:43.759Z,14.70
2019-05-20T11:07:45.943Z,16.20
2019-05-20T11:11:47.862Z,14.57
2019-05-20T11:15:49.798Z,16.10
2019-05-20T11:19:51.712Z,17.30
2019-05-20T11:23:53.641Z,17.07
2019-05-20T11:27:55.622Z,15.07
2019-05-20T11:31:57.558Z,16.03
2019-05-20T11:35:59.481Z,16.00
2019-05-20T11:40:01.393Z,17.00
2019-05-20T11:44:03.458Z,17.80
2019-05-20T11:48:06.290Z,15.93
2019-05-20T11:52:08.274Z,16.40
2019-05-20T11:56:12.117Z,19.47
2019-05-20T12:00:14.629Z,17.82
2019-05-20T12:04:16.539Z,17.07
2019-05-20T12:08:18.526Z,15.67
2019-05-20T12:12:20.550Z,19.05
2019-05-20T12:16:22.521Z,16.95
2019-05-20T12:20:24.452Z,19.17
2019-05-20T12:24:26.397Z,18.83
2019-05-20T12:28:28.321Z,18.50
2019-05-20T12:32:30.238Z,18.67
2019-05-20T12:36:32.160Z,20.93
2019-05-20T12:40:34.086Z,17.50
2019-05-20T12:44:36.015Z,21.47
2019-05-20T12:48:37.936Z,24.07
2019-05-20T12:52:39.871Z,23.47
2019-05-20T12:56:41.803Z,18.77
2019-05-20T13:00:44.015Z,21.37
2019-05-20T13:04:45.964Z,18.87
2019-05-20T13:08:47.878Z,22.13
2019-05-20T13:12:49.804Z,17.50
2019-05-20T13:16:51.745Z,20.07
2019-05-20T13:20:53.676Z,21.23
2019-05-20T13:24:55.606Z,21.80
2019-05-20T13:28:59.491Z,20.13
2019-05-20T13:33:01.243Z,19.50
2019-05-20T13:37:03.174Z,19.73
2019-05-20T13:41:06.627Z,20.47
2019-05-20T13:45:09.765Z,18.30
2019-05-20T13:49:11.705Z,2.90
2019-05-20T13:53:13.631Z,8.80
2019-05-20T13:57:15.546Z,7.95
2019-05-20T14:01:17.471Z,6.78
2019-05-20T14:05:19.458Z,8.10
2019-05-20T14:09:22.469Z,9.60
2019-05-20T14:13:24.383Z,6.97
2019-05-20T14:17:26.308Z,12.20
2019-05-20T14:21:28.213Z,9.40
2019-05-20T14:25:30.177Z,10.53
2019-05-20T14:29:32.164Z,13.37
2019-05-20T14:33:34.126Z,8.20
2019-05-20T14:37:36.048Z,11.23
2019-05-20T14:41:38.416Z,12.63
2019-05-20T14:45:40.578Z,12.50
2019-05-20T14:49:42.518Z,8.80
2019-05-20T14:53:45.205Z,11.18
2019-05-20T14:57:47.298Z,15.17
2019-05-20T15:01:49.226Z,20.80
2019-05-20T15:05:51.495Z,15.83
2019-05-20T15:09:53.577Z,22.33
2019-05-20T15:13:55.516Z,15.60
2019-05-20T15:17:57.436Z,18.23
2019-05-20T15:21:59.412Z,17.30
2019-05-20T15:26:01.344Z,17.45
2019-05-20T15:30:03.280Z,19.10
2019-05-20T15:34:06.450Z,22.55
2019-05-20T15:38:08.486Z,19.27
2019-05-20T15:42:10.418Z,18.60
2019-05-20T15:46:12.426Z,14.35
2019-05-20T15:50:15.360Z,13.13
2019-05-20T15:54:18.259Z,13.60
2019-05-20T15:58:23.568Z,14.75
2019-05-20T16:02:23.811Z,13.67
2019-05-20T16:06:25.730Z,13.50
2019-05-20T16:10:27.744Z,12.80
2019-05-20T16:14:29.699Z,16.37
2019-05-20T16:18:31.604Z,10.07
2019-05-20T16:22:33.590Z,11.37
2019-05-20T16:26:35.505Z,10.33
2019-05-20T16:30:37.500Z,12.37
2019-05-20T16:34:39.503Z,13.30
2019-05-20T16:38:41.409Z,12.37
2019-05-20T16:42:43.346Z,15.13
2019-05-20T16:46:45.261Z,18.20
2019-05-20T16:50:47.288Z,14.77
2019-05-20T16:54:49.210Z,14.90
2019-05-20T16:58:51.137Z,13.57
2019-05-20T17:02:53.063Z,14.20
2019-05-20T17:06:55.211Z,12.70
2019-05-20T17:10:57.126Z,9.63
2019-05-20T17:14:59.074Z,11.30
2019-05-20T17:19:01.059Z,10.43
2019-05-20T17:23:03.004Z,9.13
2019-05-20T17:27:04.976Z,12.13
2019-05-20T17:31:06.904Z,14.43
2019-05-20T17:35:09.259Z,13.93
2019-05-20T17:39:11.234Z,12.00
2019-05-20T17:43:13.218Z,11.20
2019-05-20T17:47:15.153Z,9.00
2019-05-20T17:51:17.227Z,8.60
2019-05-20T17:55:19.141Z,8.98
2019-05-20T17:59:21.073Z,8.57
2019-05-20T18:03:22.955Z,11.50
2019-05-20T18:07:25.828Z,7.63
2019-05-20T18:11:27.739Z,5.90
2019-05-20T18:15:30.691Z,6.70
2019-05-20T18:19:32.652Z,7.13
2019-05-20T18:23:35.517Z,6.27
2019-05-20T18:27:37.647Z,8.30
2019-05-20T18:31:39.647Z,7.27
2019-05-20T18:35:41.581Z,7.37
2019-05-20T18:39:43.660Z,7.97
2019-05-20T18:43:45.579Z,8.07
2019-05-20T18:47:47.575Z,8.37
2019-05-20T18:51:49.491Z,6.20
2019-05-20T18:55:51.401Z,6.33
2019-05-20T18:59:53.365Z,7.33
2019-05-20T19:03:55.920Z,6.80
2019-05-20T19:07:59.052Z,7.13
2019-05-20T19:12:01.483Z,7.77
2019-05-20T19:16:04.793Z,6.60
2019-05-20T19:20:08.313Z,6.67
2019-05-20T19:24:10.249Z,5.77
2019-05-20T19:28:12.723Z,6.17
2019-05-20T19:32:15.099Z,6.83
2019-05-20T19:36:18.927Z,8.53
2019-05-20T19:40:21.009Z,9.40
2019-05-20T19:44:23.094Z,7.53
2019-05-20T19:48:25.061Z,6.50
2019-05-20T19:52:26.977Z,7.00
2019-05-20T19:56:28.879Z,8.53
2019-05-20T20:00:30.790Z,9.27
2019-05-20T20:04:32.709Z,8.27
2019-05-20T20:08:36.169Z,9.67
2019-05-20T20:12:38.075Z,9.27
2019-05-20T20:16:39.990Z,9.73
2019-05-20T20:20:41.896Z,15.30
2019-05-20T20:24:43.826Z,8.13
2019-05-20T20:28:46.807Z,16.27
2019-05-20T20:32:48.724Z,8.40
2019-05-20T20:36:50.634Z,7.40
2019-05-20T20:40:52.633Z,8.57
2019-05-20T20:44:54.536Z,9.13
2019-05-20T20:48:56.528Z,7.37
2019-05-20T20:52:59.410Z,9.93
2019-05-20T20:57:01.342Z,7.83
2019-05-20T21:01:03.301Z,7.93
2019-05-20T21:05:06.739Z,8.10
2019-05-20T21:09:08.647Z,8.43
2019-05-20T21:13:10.559Z,9.13
2019-05-20T21:17:13.560Z,7.73
2019-05-20T21:21:15.465Z,8.33
2019-05-20T21:25:18.345Z,7.78
2019-05-20T21:29:21.327Z,7.27
2019-05-20T21:33:23.455Z,7.95
2019-05-20T21:37:25.393Z,7.63
2019-05-20T21:41:27.315Z,8.37
2019-05-20T21:45:29.262Z,8.80
2019-05-20T21:49:31.161Z,8.13
2019-05-20T21:53:33.077Z,7.67
2019-05-20T21:57:34.979Z,9.33
2019-05-20T22:01:37.068Z,8.40
2019-05-20T22:05:38.986Z,9.17
2019-05-20T22:09:40.924Z,11.50
2019-05-20T22:13:44.830Z,8.83
2019-05-20T22:17:46.824Z,11.05
2019-05-20T22:21:50.367Z,8.80
2019-05-20T22:25:52.958Z,7.17
2019-05-20T22:29:54.859Z,9.27
2019-05-20T22:33:56.817Z,9.90
2019-05-20T22:37:58.791Z,11.90
2019-05-20T22:42:00.733Z,8.03
2019-05-20T22:46:06.263Z,8.67
2019-05-20T22:50:08.509Z,9.97
2019-05-20T22:54:10.654Z,9.67
2019-05-20T22:58:12.771Z,8.83
2019-05-20T23:02:14.677Z,10.97
2019-05-20T23:06:16.602Z,13.25
2019-05-20T23:10:18.778Z,9.93
2019-05-20T23:14:20.691Z,8.30
2019-05-20T23:18:22.663Z,7.87
2019-05-20T23:22:25.531Z,9.70
2019-05-20T23:26:27.453Z,11.37
2019-05-20T23:30:29.428Z,9.57
2019-05-20T23:34:31.357Z,9.53
2019-05-20T23:38:33.528Z,10.90
2019-05-20T23:42:35.442Z,9.87
2019-05-20T23:46:37.406Z,11.53
2019-05-20T23:50:39.312Z,10.37
2019-05-20T23:54:41.235Z,9.33
2019-05-20T23:58:43.203Z,11.23
